createdAt,value
2022-12-19T00:01:39.726Z,100632.91
2022-12-19T00:04:09.173Z,100621.53
2022-12-19T00:06:43.646Z,100615.69
2022-12-19T00:09:11.972Z,100615.63
2022-12-19T00:11:40.405Z,100611.50
2022-12-19T00:14:10.050Z,100606.13
2022-12-19T00:16:38.145Z,100600.25
2022-12-19T00:19:06.248Z,100601.41
2022-12-19T00:21:35.472Z,100606.25
2022-12-19T00:24:16.282Z,100597.84
2022-12-19T00:26:49.481Z,100599.00
2022-12-19T00:29:17.042Z,100581.06
2022-12-19T00:31:45.398Z,100578.06
2022-12-19T00:34:15.209Z,100578.38
2022-12-19T00:36:42.806Z,100572.09
2022-12-19T00:39:12.027Z,100568.81
2022-12-19T00:41:42.159Z,100563.78
2022-12-19T00:44:16.850Z,100572.19
2022-12-19T00:46:51.838Z,100565.66
2022-12-19T00:49:20.295Z,100556.56
2022-12-19T00:51:47.712Z,100563.69
2022-12-19T00:54:16.547Z,100553.03
2022-12-19T00:56:44.408Z,100552.91
2022-12-19T00:59:11.858Z,100546.91
2022-12-19T01:01:41.687Z,100544.63
2022-12-19T01:04:29.727Z,100541.84
2022-12-19T01:07:01.786Z,100530.44
2022-12-19T01:09:34.805Z,100518.84
2022-12-19T01:12:21.019Z,100515.66
2022-12-19T01:14:54.491Z,100518.50
2022-12-19T01:17:34.565Z,100527.00
2022-12-19T01:20:07.312Z,100514.22
2022-12-19T01:22:36.071Z,100513.81
2022-12-19T01:25:05.525Z,100506.28
2022-12-19T01:27:32.956Z,100512.84
2022-12-19T01:30:00.366Z,100518.19
2022-12-19T01:32:27.799Z,100519.88
2022-12-19T01:34:55.224Z,100518.31
2022-12-19T01:37:22.665Z,100512.22
2022-12-19T01:39:50.100Z,100510.56
2022-12-19T01:42:23.536Z,100503.25
2022-12-19T01:45:31.850Z,100495.38
2022-12-19T01:48:08.815Z,100479.88
2022-12-19T01:50:40.780Z,100480.38
2022-12-19T01:53:14.620Z,100481.66
2022-12-19T01:55:44.220Z,100476.09
2022-12-19T01:58:13.914Z,100461.53
2022-12-19T02:00:43.201Z,100473.47
2022-12-19T02:03:15.849Z,100471.69
2022-12-19T02:05:44.768Z,100470.75
2022-12-19T02:08:14.125Z,100466.34
2022-12-19T02:10:41.607Z,100470.75
2022-12-19T02:13:09.518Z,100466.34
2022-12-19T02:15:47.238Z,100457.75
2022-12-19T02:18:26.146Z,100451.69
2022-12-19T02:21:23.014Z,100457.13
2022-12-19T02:24:15.178Z,100440.25
2022-12-19T02:26:52.800Z,100425.06
2022-12-19T02:29:28.297Z,100418.25
2022-12-19T02:31:59.367Z,100413.03
2022-12-19T02:34:32.764Z,100413.75
2022-12-19T02:37:07.667Z,100405.69
2022-12-19T02:39:42.685Z,100404.00
2022-12-19T02:42:12.289Z,100412.41
2022-12-19T02:44:42.618Z,100403.91
2022-12-19T02:47:12.258Z,100403.19
2022-12-19T02:49:40.213Z,100412.50
2022-12-19T02:52:12.355Z,100414.69
2022-12-19T02:54:42.288Z,100406.75
2022-12-19T02:57:17.511Z,100392.88
2022-12-19T02:59:55.950Z,100397.28
2022-12-19T03:02:32.425Z,100402.09
2022-12-19T03:05:07.435Z,100403.91
2022-12-19T03:07:38.124Z,100408.81
2022-12-19T03:10:12.345Z,100417.19
2022-12-19T03:12:45.072Z,100415.94
2022-12-19T03:15:13.071Z,100402.94
2022-12-19T03:17:41.878Z,100396.44
2022-12-19T03:20:11.988Z,100386.81
2022-12-19T03:22:39.412Z,100382.81
2022-12-19T03:25:08.249Z,100383.59
2022-12-19T03:27:36.707Z,100375.81
2022-12-19T03:30:06.496Z,100385.03
2022-12-19T03:32:36.001Z,100371.84
2022-12-19T03:35:06.762Z,100370.28
2022-12-19T03:37:38.173Z,100363.00
2022-12-19T03:40:09.620Z,100353.38
2022-12-19T03:42:56.325Z,100364.38
2022-12-19T03:45:27.583Z,100350.31
2022-12-19T03:47:58.264Z,100353.03
2022-12-19T03:50:31.531Z,100358.69
2022-12-19T03:53:04.531Z,100360.56
2022-12-19T03:55:37.206Z,100346.63
2022-12-19T03:58:07.437Z,100338.84
2022-12-19T04:00:35.826Z,100327.72
2022-12-19T04:03:03.929Z,100319.34
2022-12-19T04:05:33.805Z,100315.28
2022-12-19T04:08:03.901Z,100307.34
2022-12-19T04:10:33.470Z,100308.19
2022-12-19T04:13:04.148Z,100297.47
2022-12-19T04:15:39.044Z,100296.91
2022-12-19T04:18:08.119Z,100297.97
2022-12-19T04:20:38.097Z,100284.72
2022-12-19T04:23:08.584Z,100277.38
2022-12-19T04:25:38.918Z,100275.47
2022-12-19T04:28:10.231Z,100268.56
2022-12-19T04:30:39.381Z,100272.88
2022-12-19T04:33:08.018Z,100284.84
2022-12-19T04:35:37.253Z,100278.03
2022-12-19T04:38:04.765Z,100282.81
2022-12-19T04:40:40.657Z,100282.34
2022-12-19T04:43:09.243Z,100277.34
2022-12-19T04:45:36.776Z,100274.81
2022-12-19T04:48:05.151Z,100274.56
2022-12-19T04:50:37.050Z,100274.22
2022-12-19T04:53:05.177Z,100264.22
2022-12-19T04:55:32.640Z,100262.41
2022-12-19T04:58:00.150Z,100261.09
2022-12-19T05:00:27.585Z,100244.50
2022-12-19T05:02:55.213Z,100251.56
2022-12-19T05:05:22.834Z,100247.00
2022-12-19T05:07:52.174Z,100250.13
2022-12-19T05:10:19.759Z,100244.72
2022-12-19T05:12:47.394Z,100237.22
2022-12-19T05:15:14.988Z,100226.97
2022-12-19T05:17:43.922Z,100233.44
2022-12-19T05:20:12.425Z,100218.25
2022-12-19T05:22:39.887Z,100221.00
2022-12-19T05:25:10.079Z,100213.75
2022-12-19T05:27:37.537Z,100210.38
2022-12-19T05:30:05.952Z,100217.78
2022-12-19T05:32:34.725Z,100212.03
2022-12-19T05:35:02.206Z,100220.50
2022-12-19T05:37:29.729Z,100218.38
2022-12-19T05:39:57.214Z,100207.38
2022-12-19T05:42:27.270Z,100193.34
2022-12-19T05:44:54.768Z,100196.09
2022-12-19T05:47:22.297Z,100175.06
2022-12-19T05:49:49.780Z,100197.03
2022-12-19T05:52:17.259Z,100192.63
2022-12-19T05:54:44.866Z,100189.75
2022-12-19T05:57:12.549Z,100197.16
2022-12-19T05:59:41.431Z,100178.91
2022-12-19T06:02:09.313Z,100185.31
2022-12-19T06:04:36.849Z,100193.34
2022-12-19T06:07:04.470Z,100190.97
2022-12-19T06:09:32.076Z,100191.09
2022-12-19T06:11:59.532Z,100195.50
2022-12-19T06:14:27.066Z,100192.25
2022-12-19T06:16:55.916Z,100187.75
2022-12-19T06:19:23.663Z,100191.09
2022-12-19T06:21:51.319Z,100183.47
2022-12-19T06:24:18.844Z,100193.03
2022-12-19T06:26:46.378Z,100178.47
2022-12-19T06:29:13.860Z,100183.69
2022-12-19T06:31:41.357Z,100187.75
2022-12-19T06:34:13.368Z,100187.53
2022-12-19T06:36:46.028Z,100186.56
2022-12-19T06:39:14.247Z,100184.31
2022-12-19T06:41:59.844Z,100186.56
2022-12-19T06:44:27.478Z,100173.69
2022-12-19T06:46:54.968Z,100182.91
2022-12-19T06:49:23.840Z,100168.72
2022-12-19T06:51:51.380Z,100173.59
2022-12-19T06:54:18.969Z,100181.31
2022-12-19T06:56:46.496Z,100149.13
2022-12-19T06:59:15.259Z,100176.09
2022-12-19T07:01:55.388Z,100184.19
2022-12-19T07:04:28.167Z,100183.13
2022-12-19T07:06:55.765Z,100179.22
2022-12-19T07:09:23.350Z,100180.53
2022-12-19T07:11:50.831Z,100184.47
2022-12-19T07:14:19.121Z,100179.91
2022-12-19T07:16:47.436Z,100183.88
2022-12-19T07:19:15.468Z,100187.94
2022-12-19T07:21:44.732Z,100190.09
2022-12-19T07:24:13.142Z,100181.59
2022-12-19T07:26:40.959Z,100176.72
2022-12-19T07:29:09.249Z,100186.00
2022-12-19T07:31:37.240Z,100183.28
2022-12-19T07:34:05.185Z,100171.56
2022-12-19T07:36:32.718Z,100176.00
2022-12-19T07:39:01.671Z,100181.84
2022-12-19T07:41:29.151Z,100181.13
2022-12-19T07:43:56.646Z,100169.31
2022-12-19T07:46:24.237Z,100186.50
2022-12-19T07:48:51.734Z,100180.97
2022-12-19T07:51:21.053Z,100190.41
2022-12-19T07:53:48.666Z,100180.16
2022-12-19T07:56:17.791Z,100184.28
2022-12-19T07:58:45.566Z,100179.38
2022-12-19T08:01:13.172Z,100185.53
2022-12-19T08:03:40.790Z,100191.53
2022-12-19T08:06:08.868Z,100189.56
2022-12-19T08:08:38.881Z,100196.66
2022-12-19T08:11:10.273Z,100202.03
2022-12-19T08:13:44.809Z,100187.91
2022-12-19T08:16:14.267Z,100177.28
2022-12-19T08:18:42.137Z,100178.75
2022-12-19T08:21:09.898Z,100180.50
2022-12-19T08:23:38.557Z,100177.84
2022-12-19T08:26:07.535Z,100182.34
2022-12-19T08:28:37.107Z,100182.50
2022-12-19T08:31:09.463Z,100172.56
2022-12-19T08:33:37.378Z,100167.16
2022-12-19T08:36:05.966Z,100178.19
2022-12-19T08:38:33.687Z,100176.44
2022-12-19T08:41:01.229Z,100174.09
2022-12-19T08:43:30.369Z,100179.81
2022-12-19T08:45:58.447Z,100172.09
2022-12-19T08:48:27.588Z,100165.19
2022-12-19T08:50:57.258Z,100170.06
2022-12-19T08:53:26.675Z,100172.31
2022-12-19T08:55:56.127Z,100169.94
2022-12-19T08:58:23.822Z,100161.63
2022-12-19T09:00:57.535Z,100166.78
2022-12-19T09:03:26.865Z,100153.75
2022-12-19T09:06:08.255Z,100162.91
2022-12-19T09:08:38.639Z,100160.44
2022-12-19T09:11:09.140Z,100164.34
2022-12-19T09:13:37.630Z,100175.97
2022-12-19T09:16:15.131Z,100163.78
2022-12-19T09:18:48.609Z,100171.72
2022-12-19T09:21:16.849Z,100169.75
2022-12-19T09:23:48.132Z,100165.47
2022-12-19T09:26:18.053Z,100174.94
2022-12-19T09:28:46.773Z,100183.69
2022-12-19T09:31:16.191Z,100172.72
2022-12-19T09:33:45.447Z,100166.91
2022-12-19T09:36:13.942Z,100169.16
2022-12-19T09:38:41.585Z,100164.41
2022-12-19T09:41:22.774Z,100160.53
2022-12-19T09:43:56.547Z,100163.88
2022-12-19T09:46:32.702Z,100165.53
2022-12-19T09:49:03.088Z,100165.41
2022-12-19T09:51:34.127Z,100163.03
2022-12-19T09:54:06.211Z,100159.41
2022-12-19T09:56:46.360Z,100159.84
2022-12-19T09:59:28.079Z,100168.19
2022-12-19T10:02:21.822Z,100166.53
2022-12-19T10:05:11.439Z,100161.06
2022-12-19T10:08:07.160Z,100167.03
2022-12-19T10:12:41.395Z,100165.53
2022-12-19T10:13:40.630Z,100155.50
2022-12-19T10:16:16.156Z,100146.63
2022-12-19T10:18:56.038Z,100145.09
2022-12-19T10:22:07.432Z,100156.06
2022-12-19T10:24:35.393Z,100148.25
2022-12-19T10:27:10.124Z,100144.38
2022-12-19T10:29:55.677Z,100149.22
2022-12-19T10:32:27.622Z,100146.38
2022-12-19T10:34:55.276Z,100143.06
2022-12-19T10:37:37.725Z,100136.09
2022-12-19T10:40:20.063Z,100117.22
2022-12-19T10:42:58.943Z,100141.75
2022-12-19T10:45:38.700Z,100145.34
2022-12-19T10:48:10.857Z,100147.53
2022-12-19T10:50:38.424Z,100151.69
2022-12-19T10:53:11.627Z,100143.66
2022-12-19T10:55:43.915Z,100151.56
2022-12-19T10:58:21.121Z,100154.53
2022-12-19T11:01:00.806Z,100142.75
2022-12-19T11:03:28.715Z,100155.56
2022-12-19T11:05:58.037Z,100145.00
2022-12-19T11:08:29.535Z,100152.94
2022-12-19T11:11:46.018Z,100141.41
2022-12-19T11:18:08.686Z,100133.03
2022-12-19T11:22:16.065Z,100141.69
2022-12-19T11:29:43.816Z,100128.81
2022-12-19T11:30:08.450Z,100128.50
2022-12-19T11:30:37.868Z,100119.44
2022-12-19T11:30:46.427Z,100107.25
2022-12-19T11:33:55.655Z,100121.28
2022-12-19T11:36:31.123Z,100129.38
2022-12-19T11:38:58.660Z,100118.19
2022-12-19T11:41:31.361Z,100117.50
2022-12-19T11:44:03.228Z,100117.97
2022-12-19T11:46:37.992Z,100113.81
2022-12-19T11:49:12.143Z,100112.56
2022-12-19T11:51:44.787Z,100111.69
2022-12-19T11:54:17.350Z,100105.38
2022-12-19T11:56:46.371Z,100099.91
2022-12-19T11:59:20.953Z,100117.59
2022-12-19T12:02:15.772Z,100102.56
2022-12-19T12:05:10.021Z,100110.88
2022-12-19T12:08:25.506Z,100099.59
2022-12-19T12:13:29.472Z,100102.31
2022-12-19T12:21:17.762Z,100094.78
2022-12-19T12:30:38.794Z,100092.97
2022-12-19T12:31:07.207Z,100097.13
2022-12-19T12:31:26.818Z,100096.91
2022-12-19T12:31:39.616Z,100094.69
2022-12-19T12:32:04.538Z,100095.38
2022-12-19T12:32:06.319Z,100098.75
2022-12-19T12:35:15.448Z,100102.19
2022-12-19T12:39:33.825Z,100101.28
2022-12-19T12:42:10.519Z,100092.69
2022-12-19T12:44:45.210Z,100100.44
2022-12-19T12:47:18.952Z,100107.97
2022-12-19T12:49:48.399Z,100113.25
2022-12-19T12:52:17.872Z,100090.34
2022-12-19T12:54:48.783Z,100099.53
2022-12-19T12:57:19.571Z,100110.16
2022-12-19T12:59:48.646Z,100096.41
2022-12-19T13:02:22.223Z,100101.56
2022-12-19T13:04:58.118Z,100083.88
2022-12-19T13:07:30.459Z,100101.81
2022-12-19T13:10:23.673Z,100096.28
2022-12-19T13:13:00.672Z,100100.81
2022-12-19T13:15:49.924Z,100100.44
2022-12-19T13:18:38.481Z,100104.38
2022-12-19T13:21:09.779Z,100081.31
2022-12-19T13:23:46.928Z,100091.97
2022-12-19T13:26:39.096Z,100093.13
2022-12-19T13:29:32.267Z,100085.19
2022-12-19T13:32:13.648Z,100091.38
2022-12-19T13:34:54.904Z,100079.28
2022-12-19T13:40:02.197Z,100084.22
2022-12-19T13:40:33.346Z,100078.22
2022-12-19T13:43:23.745Z,100082.22
2022-12-19T13:45:53.564Z,100080.00
2022-12-19T13:48:28.577Z,100079.81
2022-12-19T13:50:58.159Z,100075.06
2022-12-19T13:53:27.220Z,100074.72
2022-12-19T13:55:55.428Z,100087.66
2022-12-19T13:58:29.396Z,100096.81
2022-12-19T14:00:59.681Z,100096.22
2022-12-19T14:03:35.443Z,100097.13
2022-12-19T14:06:17.453Z,100093.53
2022-12-19T14:08:47.334Z,100087.88
2022-12-19T14:11:41.519Z,100080.59
2022-12-19T14:14:27.968Z,100071.53
2022-12-19T14:16:56.826Z,100060.44
2022-12-19T14:19:27.605Z,100052.41
2022-12-19T14:22:15.893Z,100056.25
2022-12-19T14:24:54.732Z,100052.22
2022-12-19T14:28:26.980Z,100051.25
2022-12-19T14:30:30.029Z,100051.75
2022-12-19T14:33:47.101Z,100045.53
2022-12-19T14:36:07.131Z,100041.91
2022-12-19T14:39:23.794Z,100041.41
2022-12-19T14:42:01.737Z,100032.41
2022-12-19T14:52:51.555Z,100054.78
2022-12-19T14:54:06.400Z,100047.63
2022-12-19T14:54:22.392Z,100050.09
2022-12-19T14:54:23.527Z,100038.78
2022-12-19T14:56:29.070Z,100037.47
2022-12-19T14:58:58.829Z,100042.78
2022-12-19T15:01:28.489Z,100044.81
2022-12-19T15:04:48.922Z,100040.56
2022-12-19T15:07:07.334Z,100037.91
2022-12-19T15:10:58.913Z,100047.63
2022-12-19T15:14:46.967Z,100042.13
2022-12-19T15:15:41.136Z,100028.97
2022-12-19T15:18:21.066Z,100015.75
2022-12-19T15:20:48.840Z,100025.94
2022-12-19T15:23:21.692Z,100028.75
2022-12-19T15:26:07.702Z,100036.22
2022-12-19T15:28:40.431Z,100020.78
2022-12-19T15:31:15.054Z,100017.69
2022-12-19T15:34:06.658Z,100024.78
2022-12-19T15:36:30.435Z,100019.84
2022-12-19T15:38:57.969Z,100016.34
2022-12-19T15:41:25.600Z,100016.34
2022-12-19T15:44:04.073Z,100021.34
2022-12-19T15:46:32.675Z,100011.47
2022-12-19T15:49:00.958Z,100013.31
2022-12-19T15:51:28.624Z,99997.03
2022-12-19T15:54:04.107Z,100007.28
2022-12-19T15:56:46.722Z,100003.09
2022-12-19T15:59:24.065Z,99991.63
2022-12-19T16:01:52.310Z,100002.25
2022-12-19T16:04:20.518Z,100009.00
2022-12-19T16:06:48.096Z,99999.03
2022-12-19T16:09:21.113Z,100001.41
2022-12-19T16:11:49.082Z,100012.69
2022-12-19T16:14:20.113Z,100023.94
2022-12-19T16:16:51.821Z,100018.03
2022-12-19T16:19:25.541Z,100006.13
2022-12-19T16:21:54.077Z,100015.47
2022-12-19T16:24:21.950Z,100001.88
2022-12-19T16:26:52.824Z,100004.75
2022-12-19T16:29:24.123Z,99996.81
2022-12-19T16:31:52.500Z,99988.38
2022-12-19T16:34:22.311Z,99974.47
2022-12-19T16:36:50.117Z,99965.41
2022-12-19T16:39:18.140Z,99962.53
2022-12-19T16:41:46.964Z,99959.53
2022-12-19T16:44:19.421Z,99950.94
2022-12-19T16:46:51.332Z,99940.78
2022-12-19T16:49:22.719Z,99942.66
2022-12-19T16:51:50.645Z,99946.00
2022-12-19T16:54:19.894Z,99947.38
2022-12-19T16:56:49.186Z,99966.00
2022-12-19T16:59:20.753Z,99955.22
2022-12-19T17:01:50.833Z,99952.94
2022-12-19T17:04:21.503Z,99955.63
2022-12-19T17:06:49.924Z,99963.56
2022-12-19T17:09:19.246Z,99962.72
2022-12-19T17:11:48.692Z,99965.41
2022-12-19T17:14:20.069Z,99972.38
2022-12-19T17:16:49.093Z,99971.34
2022-12-19T17:19:21.099Z,99966.06
2022-12-19T17:21:49.159Z,99986.97
2022-12-19T17:24:17.285Z,99990.78
2022-12-19T17:26:45.729Z,100004.84
2022-12-19T17:29:13.595Z,100007.63
2022-12-19T17:31:42.258Z,100018.06
2022-12-19T17:34:19.078Z,100030.13
2022-12-19T17:36:46.680Z,100029.19
2022-12-19T17:39:22.041Z,100031.69
2022-12-19T17:41:49.897Z,100038.94
2022-12-19T17:44:17.733Z,100035.25
2022-12-19T17:46:45.978Z,100027.69
2022-12-19T17:49:17.733Z,100032.91
2022-12-19T17:51:47.993Z,100028.28
2022-12-19T17:54:15.513Z,100010.84
2022-12-19T17:56:43.018Z,100015.69
2022-12-19T17:59:10.509Z,100009.56
2022-12-19T18:01:41.513Z,99999.94
2022-12-19T18:04:13.252Z,99994.16
2022-12-19T18:06:42.605Z,100004.47
2022-12-19T18:09:19.000Z,100006.13
2022-12-19T18:11:46.609Z,100008.63
2022-12-19T18:14:16.346Z,100010.97
2022-12-19T18:16:45.056Z,100008.34
2022-12-19T18:19:17.194Z,100017.34
2022-12-19T18:21:46.390Z,100023.50
2022-12-19T18:24:14.699Z,100027.75
2022-12-19T18:26:42.182Z,100028.63
2022-12-19T18:29:09.695Z,100023.31
2022-12-19T18:31:37.407Z,100016.97
2022-12-19T18:34:08.089Z,100019.94
2022-12-19T18:36:40.981Z,100009.34
2022-12-19T18:39:19.888Z,100013.19
2022-12-19T18:41:47.805Z,100012.88
2022-12-19T18:44:17.199Z,100007.75
2022-12-19T18:46:45.135Z,100019.84
2022-12-19T18:49:13.933Z,100030.97
2022-12-19T18:51:41.731Z,100016.56
2022-12-19T18:54:15.211Z,100022.22
2022-12-19T18:56:42.675Z,100021.06
2022-12-19T18:59:10.989Z,100014.06
2022-12-19T19:01:41.778Z,100008.59
2022-12-19T19:04:12.020Z,100017.28
2022-12-19T19:06:43.478Z,100015.78
2022-12-19T19:09:18.905Z,100021.81
2022-12-19T19:12:12.952Z,100010.22
2022-12-19T19:14:41.596Z,100003.22
2022-12-19T19:17:16.788Z,100020.00
2022-12-19T19:19:44.359Z,100022.78
2022-12-19T19:22:11.842Z,99974.66
2022-12-19T19:24:40.877Z,100011.97
2022-12-19T19:27:08.359Z,100006.97
2022-12-19T19:29:35.856Z,100007.25
2022-12-19T19:32:03.371Z,99994.53
2022-12-19T19:34:33.091Z,99998.72
2022-12-19T19:37:02.224Z,99998.22
2022-12-19T19:39:32.818Z,99984.00
2022-12-19T19:42:01.992Z,99989.66
2022-12-19T19:44:29.805Z,99982.66
2022-12-19T19:46:57.768Z,99994.69
2022-12-19T19:49:25.437Z,99999.66
2022-12-19T19:51:57.005Z,100004.91
2022-12-19T19:54:29.744Z,100005.34
2022-12-19T19:56:57.264Z,100013.25
2022-12-19T19:59:26.087Z,100024.91
2022-12-19T20:01:54.338Z,100010.22
2022-12-19T20:04:22.086Z,100014.81
2022-12-19T20:06:49.603Z,100017.69
2022-12-19T20:09:17.272Z,100013.72
2022-12-19T20:11:44.973Z,100018.88
2022-12-19T20:14:14.829Z,100003.59
2022-12-19T20:16:44.305Z,100013.31
2022-12-19T20:19:11.991Z,100013.66
2022-12-19T20:21:39.480Z,100009.81
2022-12-19T20:24:08.011Z,100022.47
2022-12-19T20:26:35.578Z,100019.69
2022-12-19T20:29:03.431Z,100031.38
2022-12-19T20:31:32.284Z,100041.88
2022-12-19T20:34:01.158Z,100045.56
2022-12-19T20:36:28.986Z,100057.78
2022-12-19T20:38:56.554Z,100058.47
2022-12-19T20:41:24.110Z,100046.50
2022-12-19T20:43:53.005Z,100047.75
2022-12-19T20:46:22.285Z,100043.44
2022-12-19T20:48:50.437Z,100045.13
2022-12-19T20:51:21.419Z,100038.06
2022-12-19T20:53:49.076Z,100039.19
2022-12-19T20:56:18.945Z,100046.03
2022-12-19T20:58:47.062Z,100050.03
2022-12-19T21:01:16.631Z,100023.53
2022-12-19T21:03:47.028Z,100045.41
2022-12-19T21:06:20.290Z,100061.59
2022-12-19T21:08:47.931Z,100036.66
2022-12-19T21:11:16.414Z,100060.66
2022-12-19T21:13:44.236Z,100063.91
2022-12-19T21:16:14.051Z,100059.75
2022-12-19T21:18:42.440Z,100059.72
2022-12-19T21:21:12.696Z,100057.25
2022-12-19T21:23:42.152Z,100059.97
2022-12-19T21:26:09.868Z,100054.34
2022-12-19T21:28:37.710Z,100047.06
2022-12-19T21:31:08.291Z,100045.78
2022-12-19T21:33:35.985Z,100032.97
2022-12-19T21:36:07.954Z,100036.06
2022-12-19T21:38:35.602Z,100038.88
2022-12-19T21:41:05.785Z,100046.34
2022-12-19T21:43:33.391Z,100042.19
2022-12-19T21:46:08.726Z,100027.63
2022-12-19T21:48:38.278Z,100022.31
2022-12-19T21:51:06.146Z,100033.66
2022-12-19T21:53:34.311Z,100040.25
2022-12-19T21:56:07.899Z,100045.56
2022-12-19T21:58:35.667Z,100031.94
2022-12-19T22:01:08.508Z,100037.63
2022-12-19T22:03:36.447Z,100041.44
2022-12-19T22:06:04.678Z,100029.53
2022-12-19T22:08:32.339Z,100031.22
2022-12-19T22:10:59.878Z,100014.94
2022-12-19T22:13:29.022Z,100025.38
2022-12-19T22:16:01.346Z,100018.75
2022-12-19T22:18:29.363Z,100017.63
2022-12-19T22:20:57.907Z,100021.44
2022-12-19T22:23:25.744Z,100011.19
2022-12-19T22:26:01.893Z,100007.22
2022-12-19T22:28:32.333Z,99993.97
2022-12-19T22:31:00.131Z,100011.50
2022-12-19T22:33:27.859Z,100014.81
2022-12-19T22:35:55.293Z,100016.03
2022-12-19T22:38:22.867Z,100002.28
2022-12-19T22:40:50.377Z,100012.22
2022-12-19T22:43:17.853Z,99999.78
2022-12-19T22:45:46.703Z,100008.25
2022-12-19T22:48:14.204Z,100001.59
2022-12-19T22:50:46.892Z,100002.59
2022-12-19T22:53:15.042Z,99996.63
2022-12-19T22:55:42.996Z,99987.03
2022-12-19T22:58:10.664Z,99993.97
2022-12-19T23:00:38.160Z,99995.31
2022-12-19T23:03:07.605Z,99993.31
2022-12-19T23:05:36.581Z,99988.97
2022-12-19T23:08:04.228Z,99993.97
2022-12-19T23:10:31.751Z,99990.31
2022-12-19T23:12:59.231Z,99991.31
2022-12-19T23:15:26.754Z,99996.28
2022-12-19T23:17:54.272Z,100003.91
2022-12-19T23:20:23.140Z,100002.09
2022-12-19T23:22:50.651Z,100003.59
2022-12-19T23:25:18.964Z,99986.69
2022-12-19T23:27:47.135Z,100000.09
2022-12-19T23:30:14.702Z,99989.50
2022-12-19T23:32:48.735Z,99993.81
2022-12-19T23:35:18.206Z,99985.69
2022-12-19T23:37:47.033Z,100003.44
2022-12-19T23:40:14.636Z,99995.66
2022-12-19T23:42:42.282Z,99988.16
2022-12-19T23:45:10.545Z,99977.03
2022-12-19T23:47:38.142Z,99987.84
2022-12-19T23:50:06.722Z,99995.28
2022-12-19T23:52:34.240Z,99981.03
2022-12-19T23:55:03.067Z,99977.72
2022-12-19T23:57:30.667Z,99954.19
2022-12-19T23:59:58.183Z,99962.63
